createdAt,value
2022-09-15T00:00:49.773Z,12.92
2022-09-15T00:03:16.835Z,12.89
2022-09-15T00:05:44.469Z,12.85
2022-09-15T00:08:13.036Z,12.83
2022-09-15T00:10:48.260Z,12.79
2022-09-15T00:13:15.620Z,12.76
2022-09-15T00:15:42.606Z,12.74
2022-09-15T00:18:09.610Z,12.73
2022-09-15T00:20:40.638Z,12.71
2022-09-15T00:23:07.485Z,12.70
2022-09-15T00:25:34.518Z,12.69
2022-09-15T00:28:01.486Z,12.69
2022-09-15T00:30:28.457Z,12.68
2022-09-15T00:32:55.388Z,12.66
2022-09-15T00:35:22.250Z,12.63
2022-09-15T00:37:48.848Z,12.62
2022-09-15T00:40:16.078Z,12.59
2022-09-15T00:42:42.856Z,12.59
2022-09-15T00:45:15.875Z,12.58
2022-09-15T00:47:43.285Z,12.57
2022-09-15T00:50:14.591Z,12.56
2022-09-15T00:52:47.421Z,12.56
2022-09-15T00:55:22.406Z,12.56
2022-09-15T00:57:52.807Z,12.55
2022-09-15T01:00:22.427Z,12.55
2022-09-15T01:02:50.351Z,12.54
2022-09-15T01:05:19.773Z,12.53
2022-09-15T01:07:53.421Z,12.50
2022-09-15T01:10:30.374Z,12.50
2022-09-15T01:12:59.651Z,12.49
2022-09-15T01:15:34.764Z,12.48
2022-09-15T01:18:10.337Z,12.48
2022-09-15T01:20:46.032Z,12.46
2022-09-15T01:23:27.212Z,12.44
2022-09-15T01:26:51.252Z,12.40
2022-09-15T01:29:43.747Z,12.36
2022-09-15T01:32:39.924Z,12.33
2022-09-15T01:35:15.734Z,12.30
2022-09-15T01:37:49.255Z,12.28
2022-09-15T01:40:18.736Z,12.28
2022-09-15T01:42:47.700Z,12.27
2022-09-15T01:45:26.345Z,12.25
2022-09-15T01:47:55.335Z,12.22
2022-09-15T01:50:26.594Z,12.19
2022-09-15T01:52:57.488Z,12.16
2022-09-15T01:55:31.046Z,12.13
2022-09-15T01:57:59.030Z,12.10
2022-09-15T02:00:25.805Z,12.07
2022-09-15T02:03:01.373Z,12.05
2022-09-15T02:05:34.307Z,12.04
2022-09-15T02:08:06.889Z,12.03
2022-09-15T02:10:53.701Z,12.01
2022-09-15T02:13:48.658Z,12.00
2022-09-15T02:16:22.159Z,11.98
2022-09-15T02:18:54.928Z,11.97
2022-09-15T02:21:29.648Z,11.94
2022-09-15T02:24:03.895Z,11.89
2022-09-15T02:26:34.083Z,11.85
2022-09-15T02:29:05.214Z,11.80
2022-09-15T02:31:35.062Z,11.78
2022-09-15T02:34:07.712Z,11.75
2022-09-15T02:36:34.904Z,11.72
2022-09-15T02:39:07.458Z,11.70
2022-09-15T02:41:36.682Z,11.67
2022-09-15T02:44:03.762Z,11.65
2022-09-15T02:46:30.809Z,11.63
2022-09-15T02:48:57.510Z,11.61
2022-09-15T02:51:24.302Z,11.60
2022-09-15T02:53:51.131Z,11.59
2022-09-15T02:56:18.221Z,11.58
2022-09-15T02:58:44.953Z,11.59
2022-09-15T03:01:17.352Z,11.59
2022-09-15T03:03:45.959Z,11.58
2022-09-15T03:06:17.217Z,11.57
2022-09-15T03:08:53.315Z,11.55
2022-09-15T03:11:22.992Z,11.53
2022-09-15T03:13:54.241Z,11.52
2022-09-15T03:16:21.513Z,11.50
2022-09-15T03:18:48.505Z,11.49
2022-09-15T03:21:18.761Z,11.47
2022-09-15T03:23:46.033Z,11.44
2022-09-15T03:26:12.947Z,11.41
2022-09-15T03:28:40.155Z,11.39
2022-09-15T03:31:08.896Z,11.37
2022-09-15T03:33:36.109Z,11.35
2022-09-15T03:36:07.031Z,11.35
2022-09-15T03:38:34.076Z,11.36
2022-09-15T03:41:09.780Z,11.37
2022-09-15T03:43:37.289Z,11.38
2022-09-15T03:46:08.310Z,11.39
2022-09-15T03:48:36.368Z,11.41
2022-09-15T03:51:06.635Z,11.43
2022-09-15T03:53:39.016Z,11.45
2022-09-15T03:56:14.297Z,11.46
2022-09-15T03:58:41.094Z,11.47
2022-09-15T04:01:08.371Z,11.46
2022-09-15T04:03:40.236Z,11.46
2022-09-15T04:06:10.261Z,11.45
2022-09-15T04:08:37.224Z,11.43
2022-09-15T04:11:07.584Z,11.40
2022-09-15T04:13:35.460Z,11.39
2022-09-15T04:16:06.238Z,11.38
2022-09-15T04:18:33.243Z,11.36
2022-09-15T04:21:01.583Z,11.34
2022-09-15T04:23:28.661Z,11.34
2022-09-15T04:26:01.084Z,11.33
2022-09-15T04:28:29.216Z,11.33
2022-09-15T04:31:06.489Z,11.34
2022-09-15T04:33:33.862Z,11.33
2022-09-15T04:36:08.734Z,11.33
2022-09-15T04:38:35.936Z,11.32
2022-09-15T04:41:06.139Z,11.31
2022-09-15T04:43:34.047Z,11.32
2022-09-15T04:46:01.322Z,11.33
2022-09-15T04:48:28.612Z,11.36
2022-09-15T04:51:00.261Z,11.40
2022-09-15T04:53:27.348Z,11.46
2022-09-15T04:56:00.930Z,11.52
2022-09-15T04:58:27.926Z,11.60
2022-09-15T05:00:55.035Z,11.67
2022-09-15T05:03:21.925Z,11.74
2022-09-15T05:05:48.852Z,11.82
2022-09-15T05:08:15.848Z,11.89
2022-09-15T05:10:42.877Z,11.94
2022-09-15T05:13:09.718Z,12.00
2022-09-15T05:15:36.570Z,12.07
2022-09-15T05:18:03.572Z,12.15
2022-09-15T05:20:30.661Z,12.22
2022-09-15T05:22:57.392Z,12.29
2022-09-15T05:25:24.978Z,12.36
2022-09-15T05:27:51.944Z,12.44
2022-09-15T05:30:46.361Z,12.50
2022-09-15T05:33:05.660Z,12.55
2022-09-15T05:35:32.735Z,12.59
2022-09-15T05:37:59.514Z,12.64
2022-09-15T05:40:26.383Z,12.68
2022-09-15T05:42:53.198Z,12.74
2022-09-15T05:45:20.441Z,12.81
2022-09-15T05:47:47.389Z,12.87
2022-09-15T05:50:14.707Z,12.93
2022-09-15T05:52:41.474Z,12.98
2022-09-15T05:55:09.149Z,13.04
2022-09-15T05:57:35.986Z,13.09
2022-09-15T06:00:04.432Z,13.13
2022-09-15T06:02:31.508Z,13.16
2022-09-15T06:04:58.321Z,13.18
2022-09-15T06:07:25.381Z,13.18
2022-09-15T06:09:52.374Z,13.20
2022-09-15T06:12:19.439Z,13.25
2022-09-15T06:14:50.322Z,13.31
2022-09-15T06:17:17.543Z,13.32
2022-09-15T06:19:44.337Z,13.33
2022-09-15T06:22:11.328Z,13.38
2022-09-15T06:24:38.397Z,13.42
2022-09-15T06:27:05.399Z,13.47
2022-09-15T06:29:32.470Z,13.53
2022-09-15T06:32:02.908Z,13.56
2022-09-15T06:34:29.807Z,13.57
2022-09-15T06:36:56.815Z,13.57
2022-09-15T06:39:23.653Z,13.60
2022-09-15T06:42:02.501Z,13.61
2022-09-15T06:44:30.152Z,13.60
2022-09-15T06:46:56.983Z,13.63
2022-09-15T06:49:24.060Z,13.68
2022-09-15T06:51:50.855Z,13.75
2022-09-15T06:54:18.008Z,13.83
2022-09-15T06:56:44.985Z,13.86
2022-09-15T06:59:12.663Z,13.94
2022-09-15T07:01:39.735Z,13.97
2022-09-15T07:04:09.839Z,13.99
2022-09-15T07:06:38.386Z,14.01
2022-09-15T07:09:06.162Z,14.10
2022-09-15T07:11:33.244Z,14.15
2022-09-15T07:14:00.213Z,14.22
2022-09-15T07:16:27.229Z,14.29
2022-09-15T07:19:00.425Z,14.37
2022-09-15T07:21:27.647Z,14.41
2022-09-15T07:23:57.135Z,14.43
2022-09-15T07:26:25.997Z,14.45
2022-09-15T07:28:58.346Z,14.50
2022-09-15T07:31:27.242Z,14.59
2022-09-15T07:33:54.111Z,14.67
2022-09-15T07:36:21.544Z,14.75
2022-09-15T07:38:49.774Z,14.87
2022-09-15T07:41:18.926Z,14.91
2022-09-15T07:43:50.262Z,14.95
2022-09-15T07:46:18.166Z,15.00
2022-09-15T07:48:46.090Z,15.03
2022-09-15T07:51:13.694Z,15.03
2022-09-15T07:53:40.732Z,15.06
2022-09-15T07:56:08.293Z,15.12
2022-09-15T07:58:35.228Z,15.18
2022-09-15T08:01:06.757Z,15.17
2022-09-15T08:03:33.936Z,15.14
2022-09-15T08:06:05.907Z,15.19
2022-09-15T08:08:32.629Z,15.22
2022-09-15T08:10:59.462Z,15.29
2022-09-15T08:13:26.712Z,15.35
2022-09-15T08:15:53.747Z,15.39
2022-09-15T08:18:20.619Z,15.39
2022-09-15T08:20:47.562Z,15.40
2022-09-15T08:23:14.388Z,15.43
2022-09-15T08:25:41.239Z,15.46
2022-09-15T08:28:08.330Z,15.47
2022-09-15T08:30:35.964Z,15.59
2022-09-15T08:33:02.814Z,15.64
2022-09-15T08:35:31.322Z,15.78
2022-09-15T08:37:58.112Z,15.91
2022-09-15T08:40:32.675Z,16.07
2022-09-15T08:43:06.146Z,16.15
2022-09-15T08:45:46.123Z,16.31
2022-09-15T08:48:16.321Z,16.49
2022-09-15T08:50:47.676Z,16.59
2022-09-15T08:53:19.975Z,16.63
2022-09-15T08:55:55.128Z,16.66
2022-09-15T08:58:28.327Z,16.69
2022-09-15T09:01:36.288Z,16.73
2022-09-15T09:04:08.928Z,16.83
2022-09-15T09:06:54.162Z,16.90
2022-09-15T09:09:41.982Z,16.88
2022-09-15T09:12:30.118Z,16.95
2022-09-15T09:15:11.702Z,17.05
2022-09-15T09:17:52.222Z,17.01
2022-09-15T09:20:24.906Z,17.00
2022-09-15T09:22:54.233Z,17.02
2022-09-15T09:25:27.657Z,17.10
2022-09-15T09:27:58.093Z,17.16
2022-09-15T09:30:27.664Z,17.12
2022-09-15T09:33:00.252Z,17.04
2022-09-15T09:35:36.103Z,17.06
2022-09-15T09:38:02.967Z,17.27
2022-09-15T09:40:31.605Z,17.49
2022-09-15T09:42:59.578Z,17.76
2022-09-15T09:45:26.574Z,17.99
2022-09-15T09:47:58.350Z,18.04
2022-09-15T09:50:39.578Z,18.06
2022-09-15T09:53:33.864Z,18.09
2022-09-15T09:56:15.392Z,18.14
2022-09-15T09:58:42.191Z,18.22
2022-09-15T10:01:13.972Z,18.32
2022-09-15T10:03:41.881Z,18.41
2022-09-15T10:06:15.713Z,18.50
2022-09-15T10:09:00.086Z,18.50
2022-09-15T10:11:47.034Z,18.63
2022-09-15T10:14:29.248Z,18.83
2022-09-15T10:17:18.028Z,18.77
2022-09-15T10:19:51.036Z,18.75
2022-09-15T10:22:27.060Z,18.94
2022-09-15T10:24:54.325Z,19.25
2022-09-15T10:27:27.059Z,19.29
2022-09-15T10:29:54.619Z,19.33
2022-09-15T10:32:31.680Z,19.35
2022-09-15T10:35:19.306Z,19.34
2022-09-15T10:37:59.168Z,19.35
2022-09-15T10:40:40.546Z,19.41
2022-09-15T10:43:41.020Z,19.10
2022-09-15T10:46:23.934Z,18.97
2022-09-15T10:48:56.533Z,18.88
2022-09-15T10:51:33.409Z,18.85
2022-09-15T10:54:15.564Z,18.65
2022-09-15T10:56:46.188Z,18.48
2022-09-15T10:59:47.839Z,18.34
2022-09-15T11:02:33.728Z,18.05
2022-09-15T11:05:37.035Z,17.73
2022-09-15T11:08:22.718Z,17.53
2022-09-15T11:10:53.763Z,17.55
2022-09-15T11:13:44.495Z,17.61
2022-09-15T11:16:26.056Z,17.76
2022-09-15T11:18:55.265Z,17.98
2022-09-15T11:21:25.525Z,18.13
2022-09-15T11:24:13.655Z,18.31
2022-09-15T11:26:46.453Z,18.32
2022-09-15T11:29:23.383Z,18.19
2022-09-15T11:31:57.168Z,18.11
2022-09-15T11:34:30.375Z,18.06
2022-09-15T11:37:26.417Z,18.18
2022-09-15T11:40:01.922Z,18.56
2022-09-15T11:43:01.093Z,18.84
2022-09-15T11:45:35.068Z,19.31
2022-09-15T11:48:19.636Z,19.75
2022-09-15T11:50:50.122Z,19.88
2022-09-15T11:53:48.229Z,19.85
2022-09-15T11:56:36.527Z,19.52
2022-09-15T11:59:15.054Z,19.17
2022-09-15T12:01:50.285Z,18.82
2022-09-15T12:04:28.318Z,18.65
2022-09-15T12:07:14.537Z,18.51
2022-09-15T12:09:41.581Z,18.33
2022-09-15T12:12:14.419Z,18.20
2022-09-15T12:14:45.272Z,18.10
2022-09-15T12:17:24.970Z,17.97
2022-09-15T12:20:03.139Z,17.87
2022-09-15T12:22:40.940Z,17.87
2022-09-15T12:25:16.508Z,17.98
2022-09-15T12:27:43.307Z,18.09
2022-09-15T12:30:39.733Z,18.08
2022-09-15T12:33:44.185Z,17.98
2022-09-15T12:36:38.359Z,17.77
2022-09-15T12:39:36.494Z,17.53
2022-09-15T12:42:10.632Z,17.43
2022-09-15T12:44:40.651Z,17.45
2022-09-15T12:47:37.867Z,17.60
2022-09-15T12:50:16.569Z,17.74
2022-09-15T12:52:47.380Z,17.77
2022-09-15T12:55:27.184Z,17.69
2022-09-15T12:58:00.163Z,17.65
2022-09-15T13:00:32.986Z,17.63
2022-09-15T13:03:00.419Z,17.72
2022-09-15T13:05:47.316Z,17.91
2022-09-15T13:08:36.135Z,18.25
2022-09-15T13:11:09.837Z,18.86
2022-09-15T13:13:45.355Z,19.47
2022-09-15T13:16:27.244Z,20.29
2022-09-15T13:19:05.979Z,21.66
2022-09-15T13:21:35.744Z,21.63
2022-09-15T13:24:05.213Z,21.17
2022-09-15T13:26:32.258Z,20.78
2022-09-15T13:29:00.183Z,20.33
2022-09-15T13:31:50.237Z,19.88
2022-09-15T13:40:37.927Z,18.50
2022-09-15T13:43:07.299Z,18.25
2022-09-15T13:45:51.877Z,18.09
2022-09-15T13:48:46.220Z,18.23
2022-09-15T13:51:25.262Z,18.56
2022-09-15T13:54:01.351Z,19.02
2022-09-15T13:56:31.261Z,19.78
2022-09-15T13:59:08.036Z,20.13
2022-09-15T14:01:39.588Z,20.33
2022-09-15T14:04:14.586Z,20.56
2022-09-15T14:06:44.900Z,20.42
2022-09-15T14:09:37.377Z,20.14
2022-09-15T14:12:09.642Z,20.06
2022-09-15T14:14:53.718Z,20.06
2022-09-15T14:17:26.012Z,19.74
2022-09-15T14:19:57.999Z,19.53
2022-09-15T14:22:27.780Z,19.40
2022-09-15T14:24:56.499Z,19.26
2022-09-15T14:27:26.084Z,19.29
2022-09-15T14:29:55.306Z,19.47
2022-09-15T14:32:22.245Z,19.88
2022-09-15T14:34:49.397Z,20.77
2022-09-15T14:37:24.063Z,21.22
2022-09-15T14:39:53.954Z,21.09
2022-09-15T14:42:24.058Z,21.05
2022-09-15T14:47:39.178Z,21.01
2022-09-15T14:50:21.203Z,22.38
2022-09-15T14:52:52.900Z,23.67
2022-09-15T14:55:37.489Z,23.80
2022-09-15T14:58:20.605Z,22.95
2022-09-15T15:01:19.614Z,22.15
2022-09-15T15:03:49.607Z,21.35
2022-09-15T15:06:51.395Z,20.81
2022-09-15T15:09:26.833Z,20.33
2022-09-15T15:11:57.063Z,20.00
2022-09-15T15:14:23.926Z,19.76
2022-09-15T15:17:00.539Z,19.47
2022-09-15T15:19:37.053Z,19.44
2022-09-15T15:22:23.798Z,19.70
2022-09-15T15:24:53.159Z,19.94
2022-09-15T15:27:35.014Z,19.87
2022-09-15T15:30:32.264Z,19.64
2022-09-15T15:33:19.656Z,19.31
2022-09-15T15:35:47.358Z,18.98
2022-09-15T15:38:16.776Z,18.79
2022-09-15T15:40:44.810Z,18.49
2022-09-15T15:43:25.134Z,18.27
2022-09-15T15:46:06.000Z,17.96
2022-09-15T15:48:38.380Z,17.70
2022-09-15T15:51:09.324Z,17.49
2022-09-15T15:53:36.190Z,17.43
2022-09-15T15:56:06.706Z,17.48
2022-09-15T15:58:33.716Z,17.75
2022-09-15T16:01:00.596Z,18.10
2022-09-15T16:03:27.624Z,18.17
2022-09-15T16:06:00.037Z,18.23
2022-09-15T16:08:29.444Z,18.33
2022-09-15T16:10:57.591Z,19.15
2022-09-15T16:13:26.215Z,20.60
2022-09-15T16:15:54.084Z,21.91
2022-09-15T16:18:21.506Z,22.94
2022-09-15T16:20:48.182Z,24.01
2022-09-15T16:23:17.812Z,24.92
2022-09-15T16:26:11.145Z,25.51
2022-09-15T16:28:37.696Z,26.23
2022-09-15T16:31:09.799Z,26.49
2022-09-15T16:33:38.258Z,26.72
2022-09-15T16:36:17.704Z,26.84
2022-09-15T16:38:45.053Z,26.42
2022-09-15T16:41:19.874Z,26.00
2022-09-15T16:43:47.452Z,25.57
2022-09-15T16:46:14.366Z,25.17
2022-09-15T16:48:42.831Z,24.28
2022-09-15T16:51:25.257Z,23.47
2022-09-15T16:53:55.248Z,22.28
2022-09-15T16:56:22.262Z,21.31
2022-09-15T16:58:49.024Z,20.56
2022-09-15T17:01:20.808Z,19.75
2022-09-15T17:03:47.887Z,19.04
2022-09-15T17:06:17.941Z,18.39
2022-09-15T17:08:44.570Z,17.85
2022-09-15T17:11:17.400Z,17.50
2022-09-15T17:13:44.457Z,17.12
2022-09-15T17:16:13.806Z,16.85
2022-09-15T17:18:40.763Z,16.62
2022-09-15T17:21:09.734Z,16.45
2022-09-15T17:23:39.396Z,16.30
2022-09-15T17:26:20.357Z,16.18
2022-09-15T17:28:47.422Z,16.09
2022-09-15T17:31:17.417Z,16.05
2022-09-15T17:33:44.219Z,16.00
2022-09-15T17:36:11.536Z,15.94
2022-09-15T17:38:38.283Z,15.92
2022-09-15T17:41:16.627Z,15.88
2022-09-15T17:43:43.869Z,15.84
2022-09-15T17:46:11.079Z,15.84
2022-09-15T17:48:39.007Z,15.82
2022-09-15T17:51:14.202Z,15.82
2022-09-15T17:53:40.779Z,15.83
2022-09-15T17:56:07.727Z,15.82
2022-09-15T17:58:34.655Z,15.78
2022-09-15T18:01:01.343Z,15.73
2022-09-15T18:03:34.770Z,15.70
2022-09-15T18:06:09.847Z,15.62
2022-09-15T18:08:37.052Z,15.57
2022-09-15T18:11:06.325Z,15.54
2022-09-15T18:13:34.042Z,15.49
2022-09-15T18:16:07.972Z,15.42
2022-09-15T18:18:34.707Z,15.29
2022-09-15T18:21:02.001Z,15.14
2022-09-15T18:23:29.501Z,15.05
2022-09-15T18:25:56.567Z,14.95
2022-09-15T18:28:23.359Z,14.87
2022-09-15T18:30:50.607Z,14.78
2022-09-15T18:33:20.312Z,14.68
2022-09-15T18:35:48.281Z,14.58
2022-09-15T18:38:15.586Z,14.51
2022-09-15T18:40:47.491Z,14.46
2022-09-15T18:43:14.132Z,14.40
2022-09-15T18:45:42.543Z,14.36
2022-09-15T18:48:12.644Z,14.31
2022-09-15T18:50:40.997Z,14.22
2022-09-15T18:53:07.962Z,14.16
2022-09-15T18:55:34.833Z,14.07
2022-09-15T18:58:02.762Z,14.01
2022-09-15T19:00:30.044Z,13.93
2022-09-15T19:03:00.723Z,13.89
2022-09-15T19:05:29.320Z,13.86
2022-09-15T19:07:56.000Z,13.85
2022-09-15T19:10:24.364Z,13.87
2022-09-15T19:12:51.231Z,13.85
2022-09-15T19:15:18.268Z,13.81
2022-09-15T19:17:45.107Z,13.79
2022-09-15T19:20:14.174Z,13.77
2022-09-15T19:22:42.050Z,13.77
2022-09-15T19:25:10.907Z,13.76
2022-09-15T19:27:38.847Z,13.73
2022-09-15T19:30:06.494Z,13.73
2022-09-15T19:32:33.835Z,13.73
2022-09-15T19:35:00.736Z,13.71
2022-09-15T19:37:27.713Z,13.68
2022-09-15T19:39:54.812Z,13.67
2022-09-15T19:42:21.916Z,13.66
2022-09-15T19:44:49.639Z,13.65
2022-09-15T19:47:16.379Z,13.62
2022-09-15T19:49:43.703Z,13.58
2022-09-15T19:52:11.746Z,13.59
2022-09-15T19:54:38.720Z,13.54
2022-09-15T19:57:05.864Z,13.52
2022-09-15T19:59:32.689Z,13.51
2022-09-15T20:02:00.738Z,13.51
2022-09-15T20:04:28.396Z,13.51
2022-09-15T20:06:55.083Z,13.48
2022-09-15T20:09:21.838Z,13.47
2022-09-15T20:11:48.713Z,13.43
2022-09-15T20:14:15.802Z,13.39
2022-09-15T20:16:42.644Z,13.38
2022-09-15T20:19:09.643Z,13.37
2022-09-15T20:21:53.013Z,13.37
2022-09-15T20:24:21.234Z,13.37
2022-09-15T20:26:48.638Z,13.33
2022-09-15T20:29:15.843Z,13.32
2022-09-15T20:31:42.804Z,13.31
2022-09-15T20:34:09.517Z,13.26
2022-09-15T20:36:38.748Z,13.24
2022-09-15T20:39:13.105Z,13.20
2022-09-15T20:41:41.130Z,13.14
2022-09-15T20:44:11.333Z,13.12
2022-09-15T20:46:38.296Z,13.09
2022-09-15T20:49:05.711Z,13.01
2022-09-15T20:51:33.756Z,13.00
2022-09-15T20:54:03.846Z,12.95
2022-09-15T20:56:32.470Z,12.92
2022-09-15T20:59:00.478Z,12.89
2022-09-15T21:01:38.093Z,12.86
2022-09-15T21:04:06.979Z,12.84
2022-09-15T21:06:34.764Z,12.83
2022-09-15T21:09:01.616Z,12.83
2022-09-15T21:11:29.064Z,12.83
2022-09-15T21:13:56.505Z,12.83
2022-09-15T21:16:26.285Z,12.82
2022-09-15T21:18:53.628Z,12.83
2022-09-15T21:21:25.822Z,12.85
2022-09-15T21:23:58.761Z,12.84
2022-09-15T21:26:28.030Z,12.85
2022-09-15T21:28:56.270Z,12.84
2022-09-15T21:31:28.317Z,12.82
2022-09-15T21:33:55.677Z,12.80
2022-09-15T21:36:30.646Z,12.73
2022-09-15T21:38:58.858Z,12.67
2022-09-15T21:41:28.998Z,12.61
2022-09-15T21:43:58.050Z,12.59
2022-09-15T21:46:26.966Z,12.56
2022-09-15T21:48:55.501Z,12.56
2022-09-15T21:51:24.895Z,12.54
2022-09-15T21:53:53.572Z,12.52
2022-09-15T21:56:21.243Z,12.52
2022-09-15T21:58:48.680Z,12.52
2022-09-15T22:01:32.252Z,12.52
2022-09-15T22:04:01.167Z,12.52
2022-09-15T22:06:33.556Z,12.55
2022-09-15T22:09:02.079Z,12.54
2022-09-15T22:11:29.251Z,12.54
2022-09-15T22:13:56.305Z,12.55
2022-09-15T22:16:25.002Z,12.57
2022-09-15T22:18:52.077Z,12.57
2022-09-15T22:21:23.705Z,12.57
2022-09-15T22:23:51.830Z,12.58
2022-09-15T22:26:21.489Z,12.58
2022-09-15T22:28:48.425Z,12.57
2022-09-15T22:31:16.618Z,12.57
2022-09-15T22:33:43.444Z,12.51
2022-09-15T22:36:11.292Z,12.46
2022-09-15T22:38:38.676Z,12.40
2022-09-15T22:41:15.556Z,12.37
2022-09-15T22:43:43.947Z,12.32
2022-09-15T22:46:11.498Z,12.29
2022-09-15T22:48:43.339Z,12.27
2022-09-15T22:51:11.065Z,12.23
2022-09-15T22:53:38.201Z,12.19
2022-09-15T22:56:09.902Z,12.16
2022-09-15T22:58:37.276Z,12.12
2022-09-15T23:01:09.986Z,12.09
2022-09-15T23:03:37.311Z,12.04
2022-09-15T23:06:07.845Z,12.02
2022-09-15T23:08:35.404Z,12.00
2022-09-15T23:11:22.163Z,11.97
2022-09-15T23:13:49.442Z,11.95
2022-09-15T23:16:17.170Z,11.92
2022-09-15T23:18:44.896Z,11.90
2022-09-15T23:21:13.002Z,11.88
2022-09-15T23:23:41.164Z,11.83
2022-09-15T23:26:10.180Z,11.81
2022-09-15T23:28:38.933Z,11.79
2022-09-15T23:31:11.828Z,11.76
2022-09-15T23:33:38.930Z,11.74
2022-09-15T23:36:11.484Z,11.72
2022-09-15T23:38:40.150Z,11.71
2022-09-15T23:41:07.862Z,11.69
2022-09-15T23:43:35.360Z,11.65
2022-09-15T23:46:05.682Z,11.63
2022-09-15T23:48:32.768Z,11.61
2022-09-15T23:50:59.962Z,11.58
2022-09-15T23:53:27.100Z,11.57
2022-09-15T23:55:54.103Z,11.57
2022-09-15T23:58:21.128Z,11.57
